Quincy, Indiana
Current Conditions -  °F | °C
As of 4:15 AM on Wednesday 22 Oct 2014 (Local Time) from K4I7 Reporting Station
Clear Clear  
Wind Chill: 37°   Ceiling: Unl
Heat Index: 37°   Visibility: 10mi
Dew Point: 37°   Wind: 0mph
Humidity: 100%   Direction: NA
Pressure: 30.24"   Gusts: NA
Location:  39.45°N, 86.71°W
Report Text: K4I7 220815Z AUTO 00000KT 10SM CLR 03/03 A3024 RMK AO2
Loading
Personal Weather Stations






























Interactive Weather Map
Tropical Storm Tracking
New forecast layout! Learn more

10-Day Weather Forecast

Advertisements
Track Severe Weather on mobile